Time;durP1;ratioP1;P1;durP2;ratioP2;P2;SDS_P1;SDS_P2;PMS_P1;PMS_P2;Temp;Humidity;BMP_temperature;BMP_pressure;BME280_temperature;BME280_humidity;BME280_pressure;Samples;Min_cycle;Max_cycle;Signal;HPM_P1;HPM_P2
2023/12/15 00:02:13;;;;;;;;;;;5.20;99.90;;;;;;5055944;28;20001;-96
2023/12/15 00:04:39;;;;;;;;;;;5.20;99.90;;;;;;5038599;28;19928;-95
2023/12/15 00:07:05;;;;;;;;;;;5.80;99.90;;;;;;5036598;28;20629;-95
2023/12/15 00:09:30;;;;;;;;;;;5.30;99.90;;;;;;5052386;28;20078;-95
2023/12/15 00:11:56;;;;;;;;;;;5.20;99.90;;;;;;5045508;28;19921;-95
2023/12/15 00:14:21;;;;;;;;;;;5.30;99.90;;;;;;5039659;28;19920;-96
2023/12/15 00:16:47;;;;;;;;;;;5.20;99.90;;;;;;5056799;28;20003;-96
2023/12/15 00:19:12;;;;;;;;;;;5.30;99.90;;;;;;5050509;28;19928;-96
2023/12/15 00:21:38;;;;;;;;;;;5.30;99.90;;;;;;5032739;28;19974;-96
2023/12/15 00:24:08;;;;;;;;;;;6.40;99.90;;;;;;5030085;28;19920;-95
2023/12/15 00:26:34;;;;;;;;;;;5.40;99.90;;;;;;5039016;28;19974;-95
2023/12/15 00:29:00;;;;;;;;;;;5.30;99.90;;;;;;5056676;28;19928;-95
2023/12/15 00:31:26;;;;;;;;;;;5.30;99.90;;;;;;5023687;28;19924;-96
2023/12/15 00:33:51;;;;;;;;;;;5.50;99.90;;;;;;5027800;28;20011;-95
2023/12/15 00:36:17;;;;;;;;;;;5.30;99.90;;;;;;5022428;28;19924;-95
2023/12/15 00:38:42;;;;;;;;;;;5.40;99.90;;;;;;5038625;28;19921;-95
2023/12/15 00:41:08;;;;;;;;;;;5.40;99.90;;;;;;5036489;28;19921;-95
2023/12/15 00:43:33;;;;;;;;;;;5.40;99.90;;;;;;5031210;28;19920;-95
2023/12/15 00:45:59;;;;;;;;;;;5.40;99.90;;;;;;5055533;28;19924;-95
2023/12/15 00:48:24;;;;;;;;;;;5.40;99.90;;;;;;5032165;28;19932;-95
2023/12/15 00:50:50;;;;;;;;;;;5.50;99.90;;;;;;5038580;28;19974;-95
2023/12/15 00:53:16;;;;;;;;;;;5.50;99.90;;;;;;5039750;28;19927;-95
2023/12/15 00:55:41;;;;;;;;;;;5.50;99.90;;;;;;5038005;28;19946;-95
2023/12/15 00:58:07;;;;;;;;;;;5.50;99.90;;;;;;5037562;28;20416;-95
2023/12/15 01:00:32;;;;;;;;;;;6.70;99.90;;;;;;5055399;28;19955;-94
2023/12/15 01:02:58;;;;;;;;;;;5.50;99.90;;;;;;5038227;28;19978;-95
2023/12/15 01:05:23;;;;;;;;;;;5.50;99.90;;;;;;5055706;28;20271;-96
2023/12/15 01:07:49;;;;;;;;;;;5.60;99.90;;;;;;5055724;28;19929;-95
2023/12/15 01:10:46;;;;;;;;;;;5.90;99.90;;;;;;5034047;28;20634;-96
2023/12/15 01:13:11;;;;;;;;;;;5.60;99.90;;;;;;5045378;28;19935;-95
2023/12/15 01:15:37;;;;;;;;;;;5.70;99.90;;;;;;5048713;28;20381;-88
2023/12/15 01:18:02;;;;;;;;;;;5.60;99.90;;;;;;5048926;28;19920;-88
2023/12/15 01:20:28;;;;;;;;;;;6.10;99.90;;;;;;5037262;28;19972;-87
2023/12/15 01:22:53;;;;;;;;;;;5.60;99.90;;;;;;5047087;28;19920;-88
2023/12/15 01:25:19;;;;;;;;;;;5.60;99.90;;;;;;5053852;28;20375;-88
2023/12/15 01:27:45;;;;;;;;;;;5.70;99.90;;;;;;5069083;28;19929;-88
2023/12/15 01:30:10;;;;;;;;;;;5.70;99.90;;;;;;5035944;28;20007;-87
2023/12/15 01:32:36;;;;;;;;;;;5.60;99.90;;;;;;5036313;28;20007;-88
2023/12/15 01:35:01;;;;;;;;;;;6.70;99.90;;;;;;5037062;28;19981;-88
2023/12/15 01:37:27;;;;;;;;;;;5.70;99.90;;;;;;5036746;28;19921;-88
2023/12/15 01:39:52;;;;;;;;;;;5.70;99.90;;;;;;5057709;28;20291;-88
2023/12/15 01:42:18;;;;;;;;;;;5.70;99.90;;;;;;5028384;28;19925;-88
2023/12/15 01:44:44;;;;;;;;;;;5.70;99.90;;;;;;5050503;28;20323;-88
2023/12/15 01:47:11;;;;;;;;;;;5.70;99.90;;;;;;5043938;28;19933;-88
2023/12/15 01:49:37;;;;;;;;;;;6.00;99.90;;;;;;5051464;28;19920;-88
2023/12/15 01:52:03;;;;;;;;;;;5.70;99.90;;;;;;5052195;28;20431;-88
2023/12/15 01:54:28;;;;;;;;;;;5.80;99.90;;;;;;5032101;28;19971;-88
2023/12/15 01:56:54;;;;;;;;;;;5.80;99.90;;;;;;5051716;28;20567;-87
2023/12/15 01:59:19;;;;;;;;;;;5.80;99.90;;;;;;5048580;28;19928;-88
2023/12/15 02:01:45;;;;;;;;;;;5.80;99.90;;;;;;5051612;28;19927;-88
2023/12/15 02:04:11;;;;;;;;;;;5.90;99.90;;;;;;5034904;28;20284;-89
2023/12/15 02:06:36;;;;;;;;;;;5.90;99.90;;;;;;5031721;28;19924;-88
2023/12/15 02:09:03;;;;;;;;;;;5.90;99.90;;;;;;5051508;28;20566;-89
2023/12/15 02:11:28;;;;;;;;;;;5.90;99.90;;;;;;5034001;28;19921;-88
2023/12/15 02:13:54;;;;;;;;;;;5.90;99.90;;;;;;5067857;28;20012;-88
2023/12/15 02:16:19;;;;;;;;;;;6.00;99.90;;;;;;5051574;28;20630;-88
2023/12/15 02:18:45;;;;;;;;;;;6.00;99.90;;;;;;5051224;28;19943;-88
2023/12/15 02:21:10;;;;;;;;;;;6.00;99.90;;;;;;5035217;28;19921;-89
2023/12/15 02:23:37;;;;;;;;;;;6.00;99.90;;;;;;5052629;28;19920;-88
2023/12/15 02:26:02;;;;;;;;;;;6.10;99.90;;;;;;5052700;28;19920;-88
2023/12/15 02:28:28;;;;;;;;;;;6.00;99.90;;;;;;5035851;28;20360;-87
2023/12/15 02:30:54;;;;;;;;;;;6.00;99.90;;;;;;5026198;28;20384;-88
2023/12/15 02:33:19;;;;;;;;;;;6.00;99.90;;;;;;5032581;28;19924;-88
2023/12/15 02:35:47;;;;;;;;;;;6.00;99.90;;;;;;5032452;28;19928;-89
2023/12/15 02:38:18;;;;;;;;;;;6.00;99.90;;;;;;5036687;28;19996;-88
2023/12/15 02:40:44;;;;;;;;;;;6.10;99.90;;;;;;5043532;28;19925;-88
2023/12/15 02:43:13;;;;;;;;;;;6.00;99.90;;;;;;5051891;28;19990;-87
2023/12/15 02:45:38;;;;;;;;;;;6.00;99.90;;;;;;5047223;28;20298;-88
2023/12/15 02:48:04;;;;;;;;;;;6.00;99.90;;;;;;5049981;28;20006;-88
2023/12/15 02:50:30;;;;;;;;;;;6.00;99.90;;;;;;5047736;28;19924;-88
2023/12/15 02:52:55;;;;;;;;;;;6.00;99.90;;;;;;5030106;28;19978;-88
2023/12/15 02:55:21;;;;;;;;;;;6.00;99.90;;;;;;5052108;28;20085;-88
2023/12/15 02:57:47;;;;;;;;;;;6.20;99.90;;;;;;5066216;28;19921;-95
2023/12/15 03:00:14;;;;;;;;;;;5.90;99.90;;;;;;5052271;28;19921;-96
2023/12/15 03:02:39;;;;;;;;;;;6.00;99.90;;;;;;5036648;28;20375;-93
2023/12/15 03:05:05;;;;;;;;;;;6.00;99.90;;;;;;5037854;28;19928;-95
2023/12/15 03:07:31;;;;;;;;;;;6.10;99.90;;;;;;5049412;28;19932;-95
2023/12/15 03:09:57;;;;;;;;;;;6.80;99.90;;;;;;5051770;28;19920;-95
2023/12/15 03:12:22;;;;;;;;;;;6.80;99.90;;;;;;5036029;28;19920;-95
2023/12/15 03:14:48;;;;;;;;;;;6.60;99.90;;;;;;5053169;28;19920;-95
2023/12/15 03:17:16;;;;;;;;;;;6.70;99.90;;;;;;5036378;28;19927;-94
2023/12/15 03:19:41;;;;;;;;;;;6.80;99.90;;;;;;5045634;28;19968;-94
2023/12/15 03:22:07;;;;;;;;;;;6.10;99.90;;;;;;5041984;28;19970;-95
2023/12/15 03:24:33;;;;;;;;;;;6.70;99.90;;;;;;5038857;28;19920;-95
2023/12/15 03:26:58;;;;;;;;;;;6.00;99.90;;;;;;5043357;28;20017;-95
2023/12/15 03:29:24;;;;;;;;;;;5.90;99.90;;;;;;5036621;28;19924;-94
2023/12/15 03:31:50;;;;;;;;;;;5.70;99.90;;;;;;5033856;28;19925;-95
2023/12/15 03:34:15;;;;;;;;;;;5.50;99.90;;;;;;5054216;28;19981;-95
2023/12/15 03:36:41;;;;;;;;;;;5.50;99.90;;;;;;5037316;28;19928;-95
2023/12/15 03:39:07;;;;;;;;;;;5.50;99.90;;;;;;5052315;28;20368;-95
2023/12/15 03:41:32;;;;;;;;;;;5.40;99.90;;;;;;5037661;28;19928;-95
2023/12/15 03:43:58;;;;;;;;;;;5.40;99.90;;;;;;5046637;28;19928;-94
2023/12/15 03:46:24;;;;;;;;;;;5.10;99.90;;;;;;5036338;28;19964;-96
2023/12/15 03:48:49;;;;;;;;;;;5.30;99.90;;;;;;5036769;28;19924;-94
2023/12/15 03:51:15;;;;;;;;;;;5.20;99.90;;;;;;5053164;28;19927;-95
2023/12/15 03:53:40;;;;;;;;;;;5.20;99.90;;;;;;5036109;28;20588;-96
2023/12/15 03:56:07;;;;;;;;;;;5.20;99.90;;;;;;5052165;28;19928;-95
2023/12/15 03:58:32;;;;;;;;;;;5.20;99.90;;;;;;5037851;28;19964;-95
2023/12/15 04:00:58;;;;;;;;;;;5.10;99.90;;;;;;5035645;28;19920;-95
2023/12/15 04:03:24;;;;;;;;;;;5.10;99.90;;;;;;5055000;28;19924;-95
2023/12/15 04:05:49;;;;;;;;;;;5.10;99.90;;;;;;5035832;28;19924;-95
2023/12/15 04:08:15;;;;;;;;;;;5.10;99.90;;;;;;5052635;28;20023;-95
2023/12/15 04:10:40;;;;;;;;;;;5.00;99.90;;;;;;5036701;28;19932;-95
2023/12/15 04:13:06;;;;;;;;;;;5.10;99.90;;;;;;5036152;28;19920;-95
2023/12/15 04:15:32;;;;;;;;;;;5.10;99.90;;;;;;5052803;28;19921;-95
2023/12/15 04:17:58;;;;;;;;;;;;;;;;;;5053265;28;19920;-95
2023/12/15 04:20:24;;;;;;;;;;;;;;;;;;5053728;28;19924;-95
2023/12/15 04:22:50;;;;;;;;;;;;;;;;;;5053240;28;19931;-94
2023/12/15 04:25:16;;;;;;;;;;;;;;;;;;5052449;28;19928;-96
2023/12/15 04:27:42;;;;;;;;;;;;;;;;;;5052854;28;19925;-95
2023/12/15 04:30:08;;;;;;;;;;;5.10;99.90;;;;;;5053744;28;19960;-94
2023/12/15 04:32:33;;;;;;;;;;;5.10;99.90;;;;;;5036086;28;20371;-95
2023/12/15 04:34:59;;;;;;;;;;;5.30;99.90;;;;;;5056300;28;20273;-95
2023/12/15 04:37:24;;;;;;;;;;;5.40;99.90;;;;;;5038174;28;19927;-95
2023/12/15 04:39:50;;;;;;;;;;;5.50;99.90;;;;;;5040131;28;19951;-95
2023/12/15 04:42:15;;;;;;;;;;;5.10;99.90;;;;;;5057235;28;19974;-96
2023/12/15 04:44:41;;;;;;;;;;;5.80;99.90;;;;;;5035534;28;19925;-95
2023/12/15 04:47:06;;;;;;;;;;;5.20;99.90;;;;;;5053690;28;19978;-95
2023/12/15 04:49:32;;;;;;;;;;;5.30;99.90;;;;;;5056154;28;19925;-95
2023/12/15 04:51:59;;;;;;;;;;;5.90;99.90;;;;;;5056744;28;20354;-96
2023/12/15 04:54:25;;;;;;;;;;;5.40;99.90;;;;;;5037303;28;19928;-95
2023/12/15 04:56:50;;;;;;;;;;;5.50;99.90;;;;;;5039964;28;19921;-95
2023/12/15 04:59:16;;;;;;;;;;;5.80;99.90;;;;;;5033005;28;19928;-95
2023/12/15 05:01:43;;;;;;;;;;;5.60;99.90;;;;;;5031875;28;20028;-95
2023/12/15 05:04:09;;;;;;;;;;;5.70;99.90;;;;;;5056077;28;19920;-95
2023/12/15 05:06:34;;;;;;;;;;;5.40;99.90;;;;;;5039140;28;19921;-96
2023/12/15 05:09:00;;;;;;;;;;;5.50;99.90;;;;;;5055883;28;20073;-95
2023/12/15 05:11:26;;;;;;;;;;;5.40;99.90;;;;;;5072752;28;19921;-95
2023/12/15 05:13:51;;;;;;;;;;;5.50;99.90;;;;;;5037626;28;20578;-95
2023/12/15 05:16:17;;;;;;;;;;;5.40;99.90;;;;;;5036095;28;20375;-94
2023/12/15 05:18:42;;;;;;;;;;;5.70;99.90;;;;;;5054527;28;19990;-95
2023/12/15 05:21:08;;;;;;;;;;;5.50;99.90;;;;;;5054481;28;19920;-95
2023/12/15 05:23:34;;;;;;;;;;;5.70;99.90;;;;;;5052388;28;19921;-95
2023/12/15 05:25:59;;;;;;;;;;;5.60;99.90;;;;;;5036900;28;20346;-95
2023/12/15 05:28:25;;;;;;;;;;;5.30;99.90;;;;;;5068168;28;19951;-95
2023/12/15 05:30:51;;;;;;;;;;;5.40;99.90;;;;;;5035181;28;19928;-95
2023/12/15 05:33:16;;;;;;;;;;;5.90;99.90;;;;;;5052971;28;19920;-95
2023/12/15 05:35:42;;;;;;;;;;;5.50;99.90;;;;;;5050260;28;19920;-95
2023/12/15 05:38:07;;;;;;;;;;;5.20;99.90;;;;;;5037128;28;19921;-95
2023/12/15 05:40:33;;;;;;;;;;;5.30;99.90;;;;;;5055357;28;19920;-95
2023/12/15 05:42:59;;;;;;;;;;;5.00;99.90;;;;;;5055056;28;20200;-95
2023/12/15 05:45:24;;;;;;;;;;;5.50;99.90;;;;;;5071858;28;19924;-95
2023/12/15 05:47:50;;;;;;;;;;;5.20;99.90;;;;;;5054191;28;19935;-95
2023/12/15 05:50:15;;;;;;;;;;;5.80;99.90;;;;;;5038696;28;19924;-95
2023/12/15 05:52:41;;;;;;;;;;;5.00;99.90;;;;;;5051879;28;20426;-95
2023/12/15 05:55:07;;;;;;;;;;;5.00;99.90;;;;;;5048278;28;19925;-94
2023/12/15 05:57:32;;;;;;;;;;;9.30;99.90;;;;;;5054511;28;20356;-94
2023/12/15 05:59:58;;;;;;;;;;;4.80;99.90;;;;;;5054156;28;20450;-95
2023/12/15 06:02:23;;;;;;;;;;;5.00;99.90;;;;;;5054960;28;20015;-96
2023/12/15 06:04:49;;;;;;;;;;;4.90;99.90;;;;;;5049596;28;20394;-96
2023/12/15 06:07:15;;;;;;;;;;;5.00;99.90;;;;;;5034982;28;20015;-95
2023/12/15 06:09:41;;;;;;;;;;;5.00;99.90;;;;;;5038387;28;19943;-95
2023/12/15 06:12:07;;;;;;;;;;;5.80;99.90;;;;;;5030861;28;19920;-95
2023/12/15 06:14:35;;;;;;;;;;;4.90;99.90;;;;;;5051867;28;20154;-96
2023/12/15 06:17:00;;;;;;;;;;;5.50;99.90;;;;;;5052465;28;20003;-96
2023/12/15 06:19:26;;;;;;;;;;;4.70;99.90;;;;;;5050607;28;20021;-96
2023/12/15 06:21:51;;;;;;;;;;;4.70;99.90;;;;;;5036102;28;19924;-96
2023/12/15 06:24:17;;;;;;;;;;;3.50;99.90;;;;;;5067552;28;20307;-95
2023/12/15 06:26:43;;;;;;;;;;;5.30;99.90;;;;;;5035765;28;19924;-95
2023/12/15 06:29:08;;;;;;;;;;;4.00;99.90;;;;;;5066977;28;19989;-96
2023/12/15 06:31:34;;;;;;;;;;;5.30;99.90;;;;;;5051385;28;19921;-96
2023/12/15 06:33:59;;;;;;;;;;;5.00;99.90;;;;;;5063915;28;20307;-96
2023/12/15 06:36:28;;;;;;;;;;;5.20;99.90;;;;;;5051128;28;19920;-95
2023/12/15 06:38:53;;;;;;;;;;;5.00;99.90;;;;;;5047327;28;19944;-96
2023/12/15 06:41:20;;;;;;;;;;;5.10;99.90;;;;;;5034751;28;19924;-96
2023/12/15 06:43:46;;;;;;;;;;;5.40;99.90;;;;;;5037469;28;19928;-96
2023/12/15 06:46:12;;;;;;;;;;;5.10;99.90;;;;;;5037278;28;19978;-96
2023/12/15 06:48:38;;;;;;;;;;;5.50;99.90;;;;;;5054295;28;19925;-96
2023/12/15 06:51:05;;;;;;;;;;;5.20;99.90;;;;;;5052081;28;19928;-96
2023/12/15 06:53:30;;;;;;;;;;;5.30;99.90;;;;;;5051850;28;19924;-96
2023/12/15 06:55:56;;;;;;;;;;;5.30;99.90;;;;;;5069001;28;20007;-96
2023/12/15 06:58:21;;;;;;;;;;;6.60;99.90;;;;;;5053017;28;20375;-96
2023/12/15 07:00:47;;;;;;;;;;;5.40;99.90;;;;;;5036205;28;19940;-94
2023/12/15 07:03:12;;;;;;;;;;;5.30;99.90;;;;;;5050077;28;19924;-96
2023/12/15 07:05:38;;;;;;;;;;;5.40;99.90;;;;;;5069289;28;19924;-96
2023/12/15 07:08:04;;;;;;;;;;;5.40;99.90;;;;;;5065265;28;20486;-86
2023/12/15 07:10:30;;;;;;;;;;;5.30;99.90;;;;;;5048024;28;19987;-86
2023/12/15 07:12:55;;;;;;;;;;;5.50;99.90;;;;;;5055817;28;20232;-86
2023/12/15 07:15:21;;;;;;;;;;;5.80;99.90;;;;;;5043393;28;19924;-85
2023/12/15 07:17:46;;;;;;;;;;;5.50;99.90;;;;;;5027841;28;19925;-85
2023/12/15 07:20:12;;;;;;;;;;;5.50;99.90;;;;;;5048107;28;19931;-86
2023/12/15 07:22:38;;;;;;;;;;;5.50;99.90;;;;;;5044425;28;19927;-86
2023/12/15 07:25:03;;;;;;;;;;;5.50;99.90;;;;;;5026153;28;19921;-85
2023/12/15 07:27:29;;;;;;;;;;;5.50;99.90;;;;;;5047399;28;20419;-86
2023/12/15 07:29:54;;;;;;;;;;;5.50;99.90;;;;;;5022078;28;19927;-85
2023/12/15 07:32:20;;;;;;;;;;;5.40;99.90;;;;;;5030833;28;20229;-86
2023/12/15 07:34:46;;;;;;;;;;;5.40;99.90;;;;;;5046360;28;20268;-86
2023/12/15 07:37:12;;;;;;;;;;;5.40;99.90;;;;;;5028744;28;19951;-86
2023/12/15 07:39:37;;;;;;;;;;;5.40;99.90;;;;;;5054690;28;19929;-86
2023/12/15 07:42:03;;;;;;;;;;;6.40;99.90;;;;;;5032298;28;19955;-86
2023/12/15 07:44:28;;;;;;;;;;;5.40;99.90;;;;;;5024727;28;19924;-86
2023/12/15 07:46:55;;;;;;;;;;;5.30;99.90;;;;;;5055798;28;20007;-86
2023/12/15 07:49:21;;;;;;;;;;;5.30;99.90;;;;;;5014139;28;19928;-85
2023/12/15 07:51:49;;;;;;;;;;;5.20;99.90;;;;;;5056975;28;19927;-86
2023/12/15 07:54:14;;;;;;;;;;;5.20;99.90;;;;;;5046419;28;19921;-85
2023/12/15 07:56:40;;;;;;;;;;;5.30;99.90;;;;;;5039991;28;20391;-85
2023/12/15 07:59:05;;;;;;;;;;;6.00;99.90;;;;;;5031654;28;19924;-85
2023/12/15 08:01:31;;;;;;;;;;;5.30;99.90;;;;;;5030108;28;20292;-86
2023/12/15 08:03:57;;;;;;;;;;;5.30;99.90;;;;;;5044850;28;19921;-86
2023/12/15 08:06:22;;;;;;;;;;;5.30;99.90;;;;;;5023825;28;20310;-85
2023/12/15 08:08:48;;;;;;;;;;;5.40;99.90;;;;;;5025907;28;19935;-86
2023/12/15 08:11:14;;;;;;;;;;;5.50;99.90;;;;;;5049676;28;19925;-89
2023/12/15 08:13:40;;;;;;;;;;;5.40;99.90;;;;;;5027369;28;19981;-86
2023/12/15 08:16:06;;;;;;;;;;;5.50;99.90;;;;;;5040539;28;19920;-86
2023/12/15 08:18:32;;;;;;;;;;;5.50;99.90;;;;;;5027829;28;19933;-87
2023/12/15 08:20:58;;;;;;;;;;;5.50;99.90;;;;;;5064344;28;19942;-86
2023/12/15 08:23:24;;;;;;;;;;;5.50;99.90;;;;;;5039379;28;20536;-85
2023/12/15 08:25:49;;;;;;;;;;;5.70;99.90;;;;;;5035505;28;19934;-86
2023/12/15 08:28:15;;;;;;;;;;;5.60;99.90;;;;;;5048452;28;19936;-86
2023/12/15 08:30:41;;;;;;;;;;;5.70;99.90;;;;;;5047045;28;19921;-86
2023/12/15 08:33:07;;;;;;;;;;;5.70;99.90;;;;;;5065222;28;20282;-87
2023/12/15 08:35:32;;;;;;;;;;;6.40;99.90;;;;;;5037894;28;19937;-86
2023/12/15 08:37:58;;;;;;;;;;;6.30;99.90;;;;;;5047518;28;20407;-87
2023/12/15 08:40:24;;;;;;;;;;;5.80;99.90;;;;;;5026358;28;19920;-86
2023/12/15 08:42:50;;;;;;;;;;;6.00;99.90;;;;;;5040817;28;19932;-86
2023/12/15 08:45:16;;;;;;;;;;;6.00;99.90;;;;;;5057540;28;19936;-86
2023/12/15 08:47:41;;;;;;;;;;;6.00;99.90;;;;;;5063818;28;19925;-86
2023/12/15 08:50:07;;;;;;;;;;;6.00;99.90;;;;;;5044671;28;19928;-86
2023/12/15 08:52:33;;;;;;;;;;;6.30;99.90;;;;;;5019436;28;19921;-86
2023/12/15 08:54:59;;;;;;;;;;;6.20;99.90;;;;;;5040495;28;19967;-85
2023/12/15 08:57:24;;;;;;;;;;;6.50;99.90;;;;;;5054451;28;19948;-86
2023/12/15 08:59:51;;;;;;;;;;;6.80;99.90;;;;;;5024596;28;19928;-86
2023/12/15 09:02:16;;;;;;;;;;;6.90;99.90;;;;;;5057690;28;19936;-86
2023/12/15 09:04:42;;;;;;;;;;;6.50;99.90;;;;;;5066366;28;19924;-87
2023/12/15 09:07:08;;;;;;;;;;;;;;;;;;5033228;28;19925;-86
2023/12/15 09:09:34;;;;;;;;;;;6.30;99.90;;;;;;5049776;28;20570;-86
2023/12/15 09:12:00;;;;;;;;;;;6.30;99.90;;;;;;5054429;28;19983;-96
2023/12/15 09:14:26;;;;;;;;;;;6.20;99.90;;;;;;5038862;28;20344;-96
2023/12/15 09:16:54;;;;;;;;;;;6.30;99.90;;;;;;5056648;28;19935;-96
2023/12/15 09:19:19;;;;;;;;;;;6.30;99.90;;;;;;5056161;28;19999;-96
2023/12/15 09:21:45;;;;;;;;;;;6.30;99.90;;;;;;5048795;28;19976;-96
2023/12/15 09:24:13;;;;;;;;;;;6.30;99.90;;;;;;5036021;28;20333;-96
2023/12/15 09:26:40;;;;;;;;;;;6.40;99.90;;;;;;5053845;28;19921;-96
2023/12/15 09:29:06;;;;;;;;;;;6.40;99.90;;;;;;5042601;28;19920;-95
2023/12/15 09:31:31;;;;;;;;;;;6.30;99.90;;;;;;5040951;28;19927;-96
2023/12/15 09:33:57;;;;;;;;;;;6.30;99.90;;;;;;5041264;28;20569;-96
2023/12/15 09:36:24;;;;;;;;;;;6.30;99.90;;;;;;5028704;28;19921;-96
2023/12/15 09:38:49;;;;;;;;;;;6.30;99.90;;;;;;5058469;28;19921;-96
2023/12/15 09:41:15;;;;;;;;;;;6.40;99.90;;;;;;5074211;28;19921;-96
2023/12/15 09:43:41;;;;;;;;;;;6.60;99.90;;;;;;5037971;28;19999;-96
2023/12/15 09:46:06;;;;;;;;;;;6.60;99.90;;;;;;5052005;28;19932;-96
2023/12/15 09:48:32;;;;;;;;;;;6.60;99.90;;;;;;5051618;28;19928;-96
2023/12/15 09:51:01;;;;;;;;;;;6.70;99.90;;;;;;5059616;28;20283;-96
2023/12/15 09:53:27;;;;;;;;;;;6.70;99.90;;;;;;5056383;28;19927;-96
2023/12/15 09:55:53;;;;;;;;;;;7.30;99.90;;;;;;5058842;28;19928;-96
2023/12/15 09:58:19;;;;;;;;;;;6.80;99.90;;;;;;5041909;28;19924;-96
2023/12/15 10:00:45;;;;;;;;;;;6.80;99.90;;;;;;5051887;28;20359;-96
2023/12/15 10:03:11;;;;;;;;;;;6.90;99.90;;;;;;5058084;28;19920;-96
2023/12/15 10:05:37;;;;;;;;;;;7.00;99.90;;;;;;5058538;28;19921;-96
2023/12/15 10:08:03;;;;;;;;;;;7.00;99.90;;;;;;5039748;28;19931;-96
2023/12/15 10:10:29;;;;;;;;;;;7.10;99.90;;;;;;5040855;28;19920;-96
2023/12/15 10:12:56;;;;;;;;;;;7.10;99.90;;;;;;5050260;28;19921;-96
2023/12/15 10:15:22;;;;;;;;;;;7.20;99.90;;;;;;5041992;28;20398;-96
2023/12/15 10:17:48;;;;;;;;;;;7.20;99.90;;;;;;5039704;28;19924;-96
2023/12/15 10:20:14;;;;;;;;;;;7.30;99.90;;;;;;5075468;28;19963;-96
2023/12/15 10:22:40;;;;;;;;;;;7.20;99.90;;;;;;5061721;28;19978;-96
2023/12/15 10:25:16;;;;;;;;;;;7.20;99.90;;;;;;5060915;28;19927;-96
2023/12/15 10:27:42;;;;;;;;;;;7.20;99.90;;;;;;5060057;28;20023;-96
2023/12/15 10:30:08;;;;;;;;;;;7.50;99.90;;;;;;5076753;28;20414;-96
2023/12/15 10:32:34;;;;;;;;;;;7.20;99.90;;;;;;5057454;28;19921;-96
2023/12/15 10:35:00;;;;;;;;;;;7.70;99.90;;;;;;5056668;28;19931;-96
2023/12/15 10:37:27;;;;;;;;;;;7.20;99.90;;;;;;5060003;28;19965;-96
2023/12/15 10:39:54;;;;;;;;;;;7.30;99.90;;;;;;5059672;28;19920;-96
2023/12/15 10:42:21;;;;;;;;;;;7.30;99.90;;;;;;5056750;28;20422;-96
2023/12/15 10:44:47;;;;;;;;;;;7.50;99.90;;;;;;5054642;28;20311;-96
2023/12/15 10:47:13;;;;;;;;;;;7.50;99.90;;;;;;5033782;28;20603;-95
2023/12/15 10:49:38;;;;;;;;;;;7.30;99.90;;;;;;5047927;28;19925;-96
2023/12/15 10:52:05;;;;;;;;;;;8.40;99.90;;;;;;5054900;28;20011;-96
2023/12/15 10:54:32;;;;;;;;;;;8.00;99.90;;;;;;5065886;28;19925;-96
2023/12/15 10:56:57;;;;;;;;;;;7.60;99.90;;;;;;5071246;28;19927;-96
2023/12/15 10:59:23;;;;;;;;;;;7.60;99.90;;;;;;5071169;28;19924;-96
2023/12/15 11:01:49;;;;;;;;;;;7.60;99.90;;;;;;5050820;28;19920;-96
2023/12/15 11:04:16;;;;;;;;;;;7.50;99.90;;;;;;5055259;28;20276;-96
2023/12/15 11:06:41;;;;;;;;;;;7.80;99.90;;;;;;5044632;28;19921;-96
2023/12/15 11:09:07;;;;;;;;;;;7.60;99.90;;;;;;5053190;28;19944;-96
2023/12/15 11:11:33;;;;;;;;;;;9.40;99.90;;;;;;5058062;28;19921;-96
2023/12/15 11:14:08;;;;;;;;;;;7.60;99.90;;;;;;5050259;28;19920;-92
2023/12/15 11:16:36;;;;;;;;;;;7.70;99.90;;;;;;5055561;28;19927;-96
2023/12/15 11:19:02;;;;;;;;;;;7.70;99.90;;;;;;5060991;28;19921;-96
2023/12/15 11:21:28;;;;;;;;;;;7.80;99.90;;;;;;5058604;28;19927;-96
2023/12/15 11:24:07;;;;;;;;;;;7.30;99.90;;;;;;5062988;28;19921;-96
2023/12/15 11:26:41;;;;;;;;;;;7.80;99.90;;;;;;5064073;28;19932;-96
2023/12/15 11:29:07;;;;;;;;;;;7.80;99.90;;;;;;5064773;28;19925;-85
2023/12/15 11:31:33;;;;;;;;;;;7.90;99.90;;;;;;5050431;28;19925;-86
2023/12/15 11:34:03;;;;;;;;;;;7.40;99.90;;;;;;5029014;28;20399;-86
2023/12/15 11:36:30;;;;;;;;;;;8.00;99.90;;;;;;5045263;28;20371;-86
2023/12/15 11:38:57;;;;;;;;;;;8.50;99.90;;;;;;5046685;28;19950;-86
2023/12/15 11:41:23;;;;;;;;;;;;;;;;;;5062671;28;19920;-86
2023/12/15 11:43:50;;;;;;;;;;;8.10;99.90;;;;;;5045251;28;19970;-85
2023/12/15 11:46:15;;;;;;;;;;;8.20;99.90;;;;;;5032307;28;19931;-87
2023/12/15 11:48:41;;;;;;;;;;;8.20;99.90;;;;;;5050503;28;19932;-88
2023/12/15 11:51:10;;;;;;;;;;;8.30;99.90;;;;;;5033602;28;19925;-86
2023/12/15 11:53:38;;;;;;;;;;;8.30;99.90;;;;;;5062810;28;19927;-86
2023/12/15 11:56:05;;;;;;;;;;;8.30;99.90;;;;;;5042949;28;19920;-85
2023/12/15 11:58:30;;;;;;;;;;;8.30;99.90;;;;;;5031904;28;19931;-86
2023/12/15 12:00:56;;;;;;;;;;;8.30;99.90;;;;;;5031197;28;20445;-86
2023/12/15 12:03:22;;;;;;;;;;;7.40;99.90;;;;;;5044049;28;19931;-85
2023/12/15 12:05:53;;;;;;;;;;;8.40;99.90;;;;;;5063176;28;20381;-86
2023/12/15 12:08:19;;;;;;;;;;;8.30;99.90;;;;;;5049454;28;19925;-85
2023/12/15 12:10:44;;;;;;;;;;;8.40;99.90;;;;;;5060329;28;20556;-86
2023/12/15 12:13:11;;;;;;;;;;;7.40;99.90;;;;;;5038963;28;20481;-86
2023/12/15 12:15:49;;;;;;;;;;;8.40;99.90;;;;;;5062848;28;19931;-86
2023/12/15 12:18:14;;;;;;;;;;;8.50;99.90;;;;;;5048035;28;19973;-86
2023/12/15 12:20:43;;;;;;;;;;;8.40;99.90;;;;;;5048282;28;20016;-86
2023/12/15 12:23:09;;;;;;;;;;;8.50;99.90;;;;;;5045747;28;19927;-86
2023/12/15 12:25:34;;;;;;;;;;;8.40;99.90;;;;;;5064288;28;19921;-96
2023/12/15 12:28:00;;;;;;;;;;;8.50;99.90;;;;;;5037799;28;19929;-96
2023/12/15 12:30:27;;;;;;;;;;;8.70;99.90;;;;;;5038611;28;20008;-96
2023/12/15 12:32:53;;;;;;;;;;;8.60;99.90;;;;;;5069566;28;19925;-96
2023/12/15 12:35:19;;;;;;;;;;;;;;;;;;5057270;28;19927;-96
2023/12/15 12:37:45;;;;;;;;;;;8.40;99.90;;;;;;5057613;28;19928;-96
2023/12/15 12:40:11;;;;;;;;;;;8.30;99.90;;;;;;5072009;28;20496;-96
2023/12/15 12:42:37;;;;;;;;;;;8.30;99.90;;;;;;5053362;28;19946;-96
2023/12/15 12:45:03;;;;;;;;;;;8.30;99.90;;;;;;5056135;28;19980;-96
2023/12/15 12:47:32;;;;;;;;;;;8.30;99.90;;;;;;5037496;28;19928;-96
2023/12/15 12:49:57;;;;;;;;;;;8.30;99.90;;;;;;5072025;28;19920;-96
2023/12/15 12:52:23;;;;;;;;;;;8.30;99.90;;;;;;5043328;28;19921;-96
2023/12/15 12:54:49;;;;;;;;;;;8.30;99.90;;;;;;5055980;28;20951;-96
2023/12/15 12:57:15;;;;;;;;;;;8.30;99.90;;;;;;5061079;28;19920;-96
2023/12/15 12:59:41;;;;;;;;;;;8.40;99.90;;;;;;5053722;28;19924;-96
2023/12/15 13:02:07;;;;;;;;;;;8.40;99.90;;;;;;5074233;28;20418;-96
2023/12/15 13:04:36;;;;;;;;;;;8.50;99.90;;;;;;5068631;28;19920;-96
2023/12/15 13:07:01;;;;;;;;;;;8.50;99.90;;;;;;5054850;28;19928;-96
2023/12/15 13:09:27;;;;;;;;;;;9.10;99.90;;;;;;5049631;28;20276;-96
2023/12/15 13:11:53;;;;;;;;;;;8.50;99.90;;;;;;5060391;28;19932;-96
2023/12/15 13:14:19;;;;;;;;;;;8.50;99.90;;;;;;5047264;28;20366;-96
2023/12/15 13:16:45;;;;;;;;;;;8.50;99.90;;;;;;5040307;28;19921;-96
2023/12/15 13:19:11;;;;;;;;;;;8.50;99.90;;;;;;5056724;28;19921;-96
2023/12/15 13:21:37;;;;;;;;;;;8.50;99.90;;;;;;5056967;28;19920;-96
2023/12/15 13:24:03;;;;;;;;;;;8.50;99.90;;;;;;5059666;28;19921;-96
2023/12/15 13:26:29;;;;;;;;;;;8.40;99.90;;;;;;5060001;28;19927;-96
2023/12/15 13:28:55;;;;;;;;;;;8.40;99.90;;;;;;5058522;28;19925;-95
2023/12/15 13:31:21;;;;;;;;;;;8.40;99.90;;;;;;5054296;28;20268;-96
2023/12/15 13:33:50;;;;;;;;;;;8.50;99.90;;;;;;5060670;28;19932;-96
2023/12/15 13:36:16;;;;;;;;;;;8.40;99.90;;;;;;5058956;28;19921;-96
2023/12/15 13:38:43;;;;;;;;;;;8.40;99.90;;;;;;5057266;28;19921;-95
2023/12/15 13:41:10;;;;;;;;;;;8.40;99.90;;;;;;5075211;28;20002;-96
2023/12/15 13:43:39;;;;;;;;;;;8.40;99.90;;;;;;5046725;28;19921;-96
2023/12/15 13:46:05;;;;;;;;;;;8.40;99.90;;;;;;5055576;28;20038;-96
2023/12/15 13:48:31;;;;;;;;;;;8.40;99.90;;;;;;5057142;28;19932;-96
2023/12/15 13:50:58;;;;;;;;;;;8.40;99.90;;;;;;5064857;28;19943;-96
2023/12/15 13:53:27;;;;;;;;;;;8.30;99.90;;;;;;5051219;28;19920;-96
2023/12/15 13:55:53;;;;;;;;;;;8.30;99.90;;;;;;5070337;28;20537;-96
2023/12/15 13:58:19;;;;;;;;;;;8.30;99.90;;;;;;5058510;28;19921;-96
2023/12/15 14:00:45;;;;;;;;;;;8.30;99.90;;;;;;5060249;28;19924;-96
2023/12/15 14:03:11;;;;;;;;;;;8.30;99.90;;;;;;5052741;28;19924;-96
2023/12/15 14:05:37;;;;;;;;;;;8.20;99.90;;;;;;5057833;28;19924;-96
2023/12/15 14:08:03;;;;;;;;;;;8.10;99.90;;;;;;5054839;28;20379;-96
2023/12/15 14:10:28;;;;;;;;;;;8.10;99.90;;;;;;5052193;28;19998;-96
2023/12/15 14:12:54;;;;;;;;;;;8.00;99.90;;;;;;5056688;28;20000;-96
2023/12/15 14:15:20;;;;;;;;;;;8.00;99.90;;;;;;5068736;28;19932;-96
2023/12/15 14:17:46;;;;;;;;;;;7.90;99.90;;;;;;5059253;28;20582;-96
2023/12/15 14:20:12;;;;;;;;;;;7.90;99.90;;;;;;5051526;28;19921;-95
2023/12/15 14:22:39;;;;;;;;;;;7.90;99.90;;;;;;5047002;28;19921;-96
2023/12/15 14:25:06;;;;;;;;;;;7.80;99.90;;;;;;5064956;28;19920;-88
2023/12/15 14:27:32;;;;;;;;;;;7.80;99.90;;;;;;5032871;28;19925;-87